Tiempo atmosférico en la estación meteorológica de Las Palmas de Gran Canaria, San Cristobal, Las Palmas (55 m.)



Fecha
DESCASC
Temp. máxima en grados centígrados (hora)
DESCASC
Temp. mínima en grados centígrados (hora)
DESCASC
Temp. media en grados centígrados
DESCASC
Racha de viento máxima en m/sg (hora)
DESCASC
Velocidad máxima media en intervalos de 10 minutos(hora)
DESCASC
Precipitaciones diarias en mm
DESCASC
Precipitaciones de 00:00 a 06:00 en mm
DESCASC
Precipitaciones de 06:00 a 12:00 en mm
DESCASC
Precipitaciones de 12:00 a 18:00 en mm
DESCASC
Precipitaciones de 18:00 a 24:00 en mm
DESCASC
14-12-2019 22.6 (12:50) 17.4 (03:30) 20 6.94 (02:30) 3.89 (19:50) 0 0 0 0 0
13-12-2019 21.4 (13:40) 17 (06:00) 19.2 11.11 (01:00) 6.67 (02:40) 0 0 0 0 0
12-12-2019 21.7 (10:30) 17 (20:20) 19.4 11.94 (17:30) 7.22 (17:30) 0 0 0 0 0
11-12-2019 21.8 (12:00) 17.7 (00:00) 19.8 10 (18:50) 5 (12:50) 0 0 0 0 0
10-12-2019 22.2 (11:20) 16.8 (00:00) 19.5 8.33 (23:10) 4.72 (23:30) 0 0 0 0 0
09-12-2019 22.1 (12:30) 17.8 (00:00) 19.9 8.89 (03:20) 5.56 (07:00) 0 0 0 0 0
08-12-2019 21.3 (13:40) 18.1 (00:00) 19.7 10.83 (15:10) 6.39 (01:10) 0 0 0 0 0
07-12-2019 21.7 (12:20) 17 (00:00) 19.4 10.56 (22:50) 6.67 (08:20) 0 0 0 0 0
06-12-2019 21.3 (14:00) 15.2 (00:00) 18.2 13.89 (14:50) 8.33 (00:50) 7.4 1.8 0 2.4 3.2
05-12-2019 20.5 (00:20) 12.8 (00:00) 16.7 19.17 (12:40) 10.83 (12:40) 33.6 23.8 0.1 3.7 6
04-12-2019 23 (15:00) 17.1 (00:00) 20.1 13.89 (20:40) 8.06 (12:40) 0 0 0 0 0
03-12-2019 22.2 (13:50) 16.9 (00:00) 19.6 15.28 (16:10) 7.78 (05:30) 0 0 0 0 0
02-12-2019 21.9 (13:50) 16.2 (00:00) 19.1 12.5 (23:50) 8.06 (20:30) 1.2 0 0.4 0 0.8
01-12-2019 23 (14:20) 18.5 (00:00) 20.8 8.33 (16:10) 5.83 (16:10) 0 0 0 0 0
30-11-2019 28.6 (12:10) 19.3 (00:00) 23.9 5.83 (15:00) 3.89 (23:50) 0 0 0 0 0
29-11-2019 28.6 (12:40) 18.8 (00:00) 23.7 5.56 (02:00) 3.89 (02:00) 0 0 0 0 0
28-11-2019 23.5 (13:30) 18.5 (00:00) 21 5.28 (11:50) 3.33 (11:40) 0 0 0 0 0
27-11-2019 23.6 (11:20) 18.9 (00:00) 21.3 6.39 (14:40) 4.17 (22:00) 0 0 0 0 0
26-11-2019 23.7 (13:30) 18.6 (00:00) 21.2 9.44 (15:40) 5.56 (15:30) 0 0 0 0 0
25-11-2019 22.7 (13:20) 17.6 (00:00) 20.2 7.78 (11:10) 4.72 (11:10) 0 0 0 0 0
24-11-2019 22.4 (13:10) 18.5 (00:00) 20.4 8.33 (13:50) 5.28 (15:40) 0.5 0 0.5 0 0
23-11-2019 23.7 (14:30) 19.1 (00:00) 21.4 13.06 (09:50) 7.5 (09:30) 2.2 0.1 0.3 1.8 0
22-11-2019 23.4 (13:40) 18.1 (00:00) 20.8 10 (13:40) 6.67 (17:10) 0.7 0 0.7 0 0
21-11-2019 26.8 (14:40) 17.6 (00:00) 22.2 3.89 (05:00) 3.06 (05:00) 0 0 0 0 0
20-11-2019 27.3 (15:40) 17.7 (00:00) 22.5 5.83 (02:40) 3.61 (03:50) 0 0 0 0 0
19-11-2019 22 (14:30) 16.7 (00:00) 19.4 10.83 (12:00) 6.94 (12:30) 5.4 0.1 4.9 0.4 0
18-11-2019 23.5 (12:20) 17.3 (00:00) 20.4 6.11 (01:00) 4.17 (10:20) 0 0 0 0 0
17-11-2019 21.2 (12:20) 16.4 (00:00) 18.8 12.78 (12:50) 7.22 (12:50) 0.2 0.1 0.1 0 0
16-11-2019 21.6 (13:20) 15.7 (00:00) 18.7 14.44 (02:10) 7.5 (19:50) 0 0 0 0 0

Gráficas

Temp. máximas Temp. mínimas Temp. medias Precipitaciones Rachas de viento máximas Velocidades máximas media en intervalos de 10 minutos

Datos horarios

Fecha y hora oficial Temperatura (ºC) Velocidad del viento (km/h) Dirección del viento Racha (km/h) Dirección de racha Precipitación (mm) Presión (hPa) Tendencia (hPa) Humedad (%)
2019-12-15 23:00:00 16.9 0 Calma -- -- 0 -- -- 69
2019-12-15 22:00:00 16.8 0 Calma 6 Oeste 0 -- -- 71
2019-12-15 21:00:00 17.3 6 Oeste 10 Oeste 0 -- -- 71
2019-12-15 20:00:00 17.7 2 Oeste 14 Noroeste 0 -- -- 71
2019-12-15 19:00:00 19 8 Noroeste 13 Noroeste 0 -- -- 69
2019-12-15 18:00:00 18.4 6 Norte 10 Norte 0 -- -- 67
2019-12-15 17:00:00 20.2 2 Este 8 Sudeste 0 -- -- 61
2019-12-15 16:00:00 20.6 3 Sudeste 13 Sur 0 -- -- 59
2019-12-15 15:00:00 22.8 8 Sudeste 17 Este 0 -- -- 56
2019-12-15 14:00:00 21.6 9 Sudeste 15 Sudeste 0 -- -- 58
2019-12-15 13:00:00 20.1 3 Sudeste 14 Este 0 -- -- 63
2019-12-15 12:00:00 20.8 3 Este 14 Sur 0 -- -- 63
2019-12-15 11:00:00 20 8 Sur 12 Sur 0 -- -- 67
2019-12-15 10:00:00 19.1 6 Sudeste 10 Sudeste 0 -- -- 68
2019-12-15 09:00:00 18.7 4 Sudoeste 10 Sudoeste 0 -- -- 68
2019-12-15 08:00:00 17 6 Sudoeste 10 Sudoeste 0 -- -- 74
2019-12-15 07:00:00 17.4 8 Sur 11 Sur 0 -- -- 72
2019-12-15 06:00:00 17.2 5 Sudoeste 12 Oeste 0 -- -- 70
2019-12-15 05:00:00 17 9 Oeste 14 Oeste 0 -- -- 70
2019-12-15 04:00:00 18.1 6 Sur 11 Sur 0 -- -- 70
2019-12-15 03:00:00 18.2 2 Sudoeste 8 Noroeste 0 -- -- 71
2019-12-15 02:00:00 18.2 3 Sudoeste 10 Este 0 -- -- 74
2019-12-15 01:00:00 18.4 5 Este 13 Este 0 -- -- 75
2019-12-15 00:00:00 18.3 2 Nordeste 13 Nordeste 0 -- -- 75
2019-12-14 23:00:00 18.5 9 Nordeste 22 Nordeste 0 -- -- 73
2019-12-14 22:00:00 18.8 6 Norte 19 Nordeste 0 -- -- 72
2019-12-14 21:00:00 18.8 9 Norte 20 Norte 0 -- -- 73
2019-12-14 20:00:00 18.9 9 Norte 23 Norte 0 -- -- 69
2019-12-14 19:00:00 18.8 13 Norte 19 Noroeste 0 -- -- 70
2019-12-14 18:00:00 18.9 9 Norte 17 Nordeste 0 -- -- 70
2019-12-14 17:00:00 20.5 8 Nordeste 19 Nordeste 0 -- -- 69
2019-12-14 16:00:00 20.3 10 Nordeste 19 Nordeste 0 -- -- 69
2019-12-14 15:00:00 19.3 9 Nordeste 19 Nordeste 0 -- -- 68
2019-12-14 14:00:00 20 6 Nordeste 16 Nordeste 0 -- -- 67
2019-12-14 13:00:00 19.5 8 Nordeste 14 Nordeste 0 -- -- 64
2019-12-14 12:00:00 21 5 Nordeste 16 Nordeste 0 -- -- 65
2019-12-14 11:00:00 19.3 7 Norte 17 Norte 0 -- -- 71
2019-12-14 10:00:00 18.8 6 Noroeste 16 Noroeste 0 -- -- 69
2019-12-14 09:00:00 18.1 7 Oeste 17 Oeste 0 -- -- 69
2019-12-14 08:00:00 17.8 8 Oeste 14 Oeste 0 -- -- 70
2019-12-14 07:00:00 17.9 9 Noroeste 15 Noroeste 0 -- -- 71
2019-12-14 06:00:00 17.7 9 Norte 15 Norte 0 -- -- 75
2019-12-14 05:00:00 17.8 3 Norte 19 Nordeste 0 -- -- 74
2019-12-14 04:00:00 17.8 5 Noroeste 17 Noroeste 0 -- -- 71
2019-12-14 03:00:00 18.3 6 Nordeste 25 Nordeste 0 -- -- 69
2019-12-14 02:00:00 18.1 11 Noroeste 18 Noroeste 0 -- -- 64
2019-12-14 01:00:00 18.3 8 Norte 21 Nordeste 0 -- -- 65
2019-12-14 00:00:00 19.9 6 Noroeste 24 Nordeste 0 -- -- 58
2019-12-13 23:00:00 18.5 13 Norte 23 Norte 0 -- -- 63
2019-12-13 22:00:00 18.4 11 Noroeste 20 Noroeste 0 -- -- 60
2019-12-13 21:00:00 18.4 11 Norte 27 Norte 0 -- -- 61
2019-12-13 20:00:00 18.3 13 Norte 26 Noroeste 0 -- -- 67
2019-12-13 19:00:00 18.3 11 Norte 19 Norte 0 -- -- 67
2019-12-13 18:00:00 18.6 7 Norte 26 Norte 0 -- -- 61
2019-12-13 17:00:00 18.5 14 Norte 26 Norte 0 -- -- 65
2019-12-13 16:00:00 20.1 13 Norte 27 Norte 0 -- -- 60
2019-12-13 15:00:00 19.4 12 Norte 24 Norte 0 -- -- 63
2019-12-13 14:00:00 18.5 12 Norte 27 Norte 0 -- -- 60
2019-12-13 13:00:00 18.9 16 Norte 28 Norte 0 -- -- 58
2019-12-13 12:00:00 18 11 Norte 19 Noroeste 0 -- -- 59
2019-12-13 11:00:00 18.7 4 Norte 27 Norte 0 -- -- 53
2019-12-13 10:00:00 17.5 9 Noroeste 30 Norte 0 -- -- 59
2019-12-13 09:00:00 17.3 17 Norte 29 Nordeste 0 -- -- 62
2019-12-13 08:00:00 17.2 14 Norte 30 Norte 0 -- -- 60
2019-12-13 07:00:00 18.3 18 Norte 30 Nordeste 0 -- -- 60
2019-12-13 06:00:00 17.1 16 Norte 30 Norte 0 -- -- 62
2019-12-13 05:00:00 17.4 21 Norte 37 Nordeste 0 -- -- 58
2019-12-13 04:00:00 17.5 17 Norte 33 Norte 0 -- -- 64
2019-12-13 03:00:00 17.5 8 Norte 39 Nordeste 0 -- -- 60
2019-12-13 02:00:00 17.6 14 Norte 39 Norte 0 -- -- 59
2019-12-13 01:00:00 17.6 22 Norte 40 Norte 0 -- -- 60
2019-12-13 00:00:00 17.9 13 Norte 35 Norte 0 -- -- 58
2019-12-12 23:00:00 18.3 19 Norte 38 Nordeste 0 -- -- 60
2019-12-12 22:00:00 18 12 Norte 36 Norte 0 -- -- 59
2019-12-12 21:00:00 19.2 20 Norte 35 Norte 0 -- -- 62
2019-12-12 20:00:00 18.1 14 Norte 42 Norte 0 -- -- 62
2019-12-12 19:00:00 18.2 23 Norte 39 Norte 0 -- -- 63
2019-12-12 18:00:00 18.4 22 Norte 43 Nordeste 0 -- -- 64
2019-12-12 17:00:00 18.6 22 Norte 36 Norte 0 -- -- 68
2019-12-12 16:00:00 18.7 18 Nordeste 33 Nordeste 0 -- -- 68
2019-12-12 15:00:00 20 17 Norte 36 Nordeste 0 -- -- 68
2019-12-12 14:00:00 19.8 21 Nordeste 38 Nordeste 0 -- -- 69
2019-12-12 13:00:00 19.1 8 Nordeste 26 Norte 0 -- -- 71
2019-12-12 12:00:00 19.5 12 Nordeste 25 Nordeste 0 -- -- 68
2019-12-12 11:00:00 19.4 6 Norte 19 Nordeste 0 -- -- 68
2019-12-12 10:00:00 19.2 6 Nordeste 26 Nordeste 0 -- -- 65
2019-12-12 09:00:00 20 9 Nordeste 25 Norte 0 -- -- 64
2019-12-12 08:00:00 18.4 11 Norte 26 Norte 0 -- -- 68
2019-12-12 07:00:00 18.1 12 Norte 24 Norte 0 -- -- 67
2019-12-12 06:00:00 18 10 Norte 26 Norte 0 -- -- 68
2019-12-12 05:00:00 18 12 Norte 23 Norte 0 -- -- 68
2019-12-12 04:00:00 18.1 10 Norte 23 Norte 0 -- -- 68
2019-12-12 03:00:00 18.2 13 Norte 21 Nordeste 0 -- -- 67
2019-12-12 02:00:00 18.3 10 Norte 26 Norte 0 -- -- 65
2019-12-12 01:00:00 18.4 12 Norte 26 Norte 0 -- -- 67
2019-12-12 00:00:00 18.5 11 Norte 26 Nordeste 0 -- -- 64
2019-12-11 23:00:00 18.4 12 Norte 26 Norte 0 -- -- 65
2019-12-11 22:00:00 18.4 13 Norte 27 Norte 0 -- -- 64
2019-12-11 21:00:00 18.2 14 Norte 34 Norte 0 -- -- 64
2019-12-11 20:00:00 18.2 14 Norte 28 Nordeste 0 -- -- 64
2019-12-11 19:00:00 18.4 16 Norte 36 Nordeste 0 -- -- 65
2019-12-11 18:00:00 18.7 12 Norte 29 Norte 0 -- -- 65
2019-12-11 17:00:00 18.7 16 Norte 26 Norte 0 -- -- 67
2019-12-11 16:00:00 19.2 14 Norte 25 Norte 0 -- -- 67
2019-12-11 15:00:00 20.7 13 Norte 29 Nordeste 0 -- -- 66
2019-12-11 14:00:00 19.2 14 Norte 30 Nordeste 0 -- -- 68
2019-12-11 13:00:00 20.1 17 Nordeste 28 Nordeste 0 -- -- 65
2019-12-11 12:00:00 20.4 12 Nordeste 23 Nordeste 0 -- -- 64
2019-12-11 11:00:00 19.7 15 Nordeste 27 Nordeste 0 -- -- 68
2019-12-11 10:00:00 19.1 10 Nordeste 27 Nordeste 0 -- -- 69
2019-12-11 09:00:00 19.1 15 Nordeste 29 Nordeste 0 -- -- 69
2019-12-11 08:00:00 18.6 14 Nordeste 26 Este 0 -- -- 73
2019-12-11 07:00:00 18.4 11 Nordeste 20 Nordeste 0 -- -- 71
2019-12-11 06:00:00 18.4 13 Nordeste 22 Nordeste 0 -- -- 73
2019-12-11 05:00:00 18.3 14 Nordeste 25 Nordeste 0 -- -- 73
2019-12-11 04:00:00 18.5 8 Norte 22 Nordeste 0 -- -- 73
2019-12-11 03:00:00 18.5 11 Nordeste 22 Norte 0 -- -- 74
2019-12-11 02:00:00 18.8 12 Nordeste 25 Nordeste 0 -- -- 71
2019-12-11 01:00:00 18.9 12 Nordeste 26 Nordeste 0 -- -- 73
2019-12-11 00:00:00 19 9 Norte 30 Nordeste 0 -- -- 71
2019-12-10 23:00:00 19.2 7 Norte 21 Nordeste 0 -- -- 71
2019-12-10 22:00:00 19 10 Nordeste 21 Norte 0 -- -- 73
2019-12-10 21:00:00 19 12 Norte 22 Norte 0 -- -- 75
2019-12-10 20:00:00 18.9 10 Norte 23 Norte 0 -- -- 73
2019-12-10 19:00:00 19 12 Norte 22 Norte 0 -- -- 72
2019-12-10 18:00:00 19.2 12 Norte 21 Norte 0 -- -- 69
2019-12-10 17:00:00 19.2 11 Norte 20 Norte 0 -- -- 68
2019-12-10 16:00:00 19.5 9 Norte 19 Norte 0 -- -- 67
2019-12-10 15:00:00 20 9 Nordeste 21 Norte 0 -- -- 65
2019-12-10 14:00:00 20 7 Nordeste 18 Nordeste 0 -- -- 64
2019-12-10 13:00:00 21.6 6 Nordeste 17 Nordeste 0 -- -- 60
2019-12-10 12:00:00 20.5 10 Nordeste 17 Nordeste 0 -- -- 63
2019-12-10 11:00:00 21.5 5 Nordeste 19 Nordeste 0 -- -- 60
2019-12-10 10:00:00 20.1 6 Nordeste 17 Nordeste 0 -- -- 62
2019-12-10 09:00:00 19.9 3 Noroeste 14 Noroeste 0 -- -- 64
2019-12-10 08:00:00 18.5 9 Noroeste 15 Oeste 0 -- -- 68
2019-12-10 07:00:00 17.1 8 Oeste 15 Noroeste 0 -- -- 68
2019-12-10 06:00:00 17.2 8 Oeste 17 Oeste 0 -- -- 67
2019-12-10 05:00:00 17.7 9 Oeste 16 Norte 0 -- -- 67
2019-12-10 04:00:00 17.5 8 Noroeste 20 Nordeste 0 -- -- 67
2019-12-10 03:00:00 18.1 10 Norte 19 Norte 0 -- -- 65
2019-12-10 02:00:00 17.7 9 Noroeste 18 Noroeste 0 -- -- 68
2019-12-10 01:00:00 17.7 9 Noroeste 18 Noroeste 0 -- -- 68
2019-12-10 00:00:00 17.8 4 Noroeste 21 Nordeste 0 -- -- 68
2019-12-09 23:00:00 18.2 10 Nordeste 22 Nordeste 0 -- -- 69
2019-12-09 22:00:00 18.3 9 Nordeste 22 Nordeste 0 -- -- 69
2019-12-09 21:00:00 18.5 11 Norte 21 Nordeste 0 -- -- 69
2019-12-09 20:00:00 18.7 9 Norte 21 Norte 0 -- -- 69
2019-12-09 19:00:00 18.9 12 Norte 22 Noroeste 0 -- -- 68
2019-12-09 18:00:00 18.7 12 Norte 22 Nordeste 0 -- -- 68
2019-12-09 17:00:00 20.3 9 Norte 19 Norte 0 -- -- 65
2019-12-09 16:00:00 19.4 10 Nordeste 21 Norte 0 -- -- 65
2019-12-09 15:00:00 20.4 9 Nordeste 22 Nordeste 0 -- -- 65
2019-12-09 14:00:00 20.1 12 Nordeste 23 Nordeste 0 -- -- 64
2019-12-09 13:00:00 20.5 10 Nordeste 23 Nordeste 0 -- -- 64
2019-12-09 12:00:00 19.1 9 Norte 23 Nordeste 0 -- -- 64
2019-12-09 11:00:00 19.9 9 Nordeste 30 Nordeste 0 -- -- 63
2019-12-09 10:00:00 19.4 16 Nordeste 27 Nordeste 0 -- -- 64
2019-12-09 09:00:00 18.9 17 Nordeste 26 Nordeste 0 -- -- 67
2019-12-09 08:00:00 18.3 18 Nordeste 28 Nordeste 0 -- -- 68
2019-12-09 07:00:00 18.2 20 Nordeste 29 Nordeste 0 -- -- 67
2019-12-09 06:00:00 18.2 13 Nordeste 26 Nordeste 0 -- -- 69
2019-12-09 05:00:00 18.3 15 Nordeste 30 Nordeste 0 -- -- 67
2019-12-09 04:00:00 18.2 11 Nordeste 32 Nordeste 0 -- -- 67
2019-12-09 03:00:00 18.2 16 Nordeste 29 Nordeste 0 -- -- 65
2019-12-09 02:00:00 18.2 11 Nordeste 29 Nordeste 0 -- -- 68
2019-12-09 01:00:00 18.3 13 Nordeste 29 Nordeste 0 -- -- 67
2019-12-09 00:00:00 18.4 12 Norte 30 Norte 0 -- -- 65
2019-12-08 23:00:00 18.3 17 Norte 29 Norte 0 -- -- 65
2019-12-08 22:00:00 18.4 15 Norte 31 Norte 0 -- -- 65
2019-12-08 21:00:00 19.4 16 Norte 32 Nordeste 0 -- -- 64
2019-12-08 20:00:00 18.5 16 Norte 30 Norte 0 -- -- 65
2019-12-08 19:00:00 18.4 14 Norte 27 Nordeste 0 -- -- 64
2019-12-08 18:00:00 19.4 16 Norte 29 Norte 0 -- -- 62
2019-12-08 17:00:00 18.7 15 Norte 30 Nordeste 0 -- -- 62
2019-12-08 16:00:00 18.8 19 Norte 39 Nordeste 0 -- -- 62
2019-12-08 15:00:00 19.2 16 Norte 31 Norte 0 -- -- 65
2019-12-08 14:00:00 19.7 13 Norte 32 Nordeste 0 -- -- 61
2019-12-08 13:00:00 19.6 18 Norte 31 Norte 0 -- -- 63
2019-12-08 12:00:00 19.2 17 Norte 32 Norte 0 -- -- 62
2019-12-08 11:00:00 19.3 14 Nordeste 30 Nordeste 0 -- -- 62
2019-12-08 10:00:00 18.7 13 Nordeste 29 Nordeste 0 -- -- 64
2019-12-08 09:00:00 18.5 20 Norte 29 Norte 0 -- -- 63
2019-12-08 08:00:00 18.2 16 Norte 26 Norte 0 -- -- 64
2019-12-08 07:00:00 18.2 16 Norte 33 Norte 0 -- -- 65
2019-12-08 06:00:00 18.2 18 Norte 30 Norte 0 -- -- 65
2019-12-08 05:00:00 18.2 15 Nordeste 33 Norte 0 -- -- 67
2019-12-08 04:00:00 18.2 18 Norte 37 Norte 0 -- -- 68
2019-12-08 03:00:00 18.3 22 Norte 37 Nordeste 0 -- -- 69
2019-12-08 02:00:00 18.4 18 Norte 39 Nordeste 0 -- -- 71
2019-12-08 01:00:00 18.6 18 Norte 36 Nordeste 0 -- -- 71
2019-12-08 00:00:00 18.6 17 Norte 35 Nordeste 0 -- -- 72
2019-12-07 23:00:00 18.7 18 Nordeste 38 Este 0 -- -- 70
2019-12-07 22:00:00 18.8 20 Norte 35 Norte 0 -- -- 70
2019-12-07 21:00:00 19.7 18 Norte 34 Nordeste 0 -- -- 69
2019-12-07 20:00:00 18.8 19 Norte 37 Norte 0 -- -- 69
2019-12-07 19:00:00 18.8 17 Norte 35 Nordeste 0 -- -- 69
2019-12-07 18:00:00 18.9 17 Norte 34 Norte 0 -- -- 69
2019-12-07 17:00:00 19.1 19 Norte 38 Norte 0 -- -- 69
2019-12-07 16:00:00 19 17 Norte 34 Norte 0 -- -- 68
2019-12-07 15:00:00 19.3 17 Norte 32 Norte 0 -- -- 65
2019-12-07 14:00:00 20 15 Norte 31 Nordeste 0 -- -- 64
2019-12-07 13:00:00 20.6 15 Norte 27 Norte 0 -- -- 64
2019-12-07 12:00:00 19.6 15 Norte 32 Norte 0 -- -- 64
2019-12-07 11:00:00 19.5 13 Norte 31 Norte 0 -- -- 63
2019-12-07 10:00:00 19.1 15 Noroeste 31 Noroeste 0 -- -- 69
2019-12-07 09:00:00 17.8 16 Noroeste 34 Noroeste 0 -- -- 70
2019-12-07 08:00:00 17.6 17 Norte 29 Norte 0 -- -- 71
2019-12-07 07:00:00 18 15 Noroeste 23 Norte 0 -- -- 64
2019-12-07 06:00:00 17.9 13 Noroeste 20 Noroeste 0 -- -- 65
2019-12-07 05:00:00 17.9 14 Noroeste 22 Noroeste 0 -- -- 64
2019-12-07 04:00:00 17.7 15 Noroeste 23 Noroeste 0 -- -- 63
2019-12-07 03:00:00 17.8 12 Noroeste 24 Noroeste 0 -- -- 65
2019-12-07 02:00:00 18 15 Noroeste 23 Noroeste 0 -- -- 64
2019-12-07 01:00:00 18 13 Noroeste 22 Noroeste 0 -- -- 68
2019-12-07 00:00:00 17.8 12 Noroeste 23 Noroeste 0 -- -- 69
2019-12-06 23:00:00 17.4 15 Noroeste 33 Nordeste 1.5 -- -- 74
2019-12-06 22:00:00 16.6 13 Norte 36 Norte 0.4 -- -- 74
2019-12-06 21:00:00 18.1 14 Norte 34 Norte 0 -- -- 66
2019-12-06 20:00:00 18.3 16 Norte 35 Norte 1.3 -- -- 68
2019-12-06 19:00:00 18.5 20 Norte 36 Norte 0 -- -- 67
2019-12-06 18:00:00 18.4 24 Norte 42 Noroeste 0 -- -- 68
2019-12-06 17:00:00 18.7 21 Norte 45 Noroeste 2 -- -- 67
2019-12-06 16:00:00 18.7 18 Norte 43 Noroeste 0.3 -- -- 63
2019-12-06 15:00:00 18.7 24 Noroeste 50 Noroeste 0 -- -- 64
2019-12-06 14:00:00 19.8 19 Noroeste 43 Norte 0 -- -- 58
2019-12-06 13:00:00 19.1 18 Norte 41 Noroeste 0.1 -- -- 65
2019-12-06 12:00:00 19.4 16 Norte 37 Norte 0 -- -- 63
2019-12-06 11:00:00 18.7 23 Norte 42 Norte 0 -- -- 64
2019-12-06 10:00:00 19.5 24 Norte 37 Norte 0 -- -- 66
2019-12-06 09:00:00 18.4 15 Norte 28 Norte 0 -- -- 63
2019-12-06 08:00:00 18 17 Noroeste 34 Noroeste 0 -- -- 62
2019-12-06 07:00:00 18 19 Noroeste 33 Norte 0 -- -- 63
2019-12-06 06:00:00 16.6 27 Noroeste 48 Noroeste 0.1 -- -- 74
2019-12-06 05:00:00 16.7 18 Noroeste 37 Noroeste 1.6 -- -- 71
2019-12-06 04:00:00 17.1 24 Noroeste 40 Noroeste 0.1 -- -- 65
2019-12-06 03:00:00 17 21 Noroeste 32 Noroeste 0 -- -- 69
2019-12-06 02:00:00 17.5 25 Noroeste 41 Noroeste 0 -- -- 67
2019-12-06 01:00:00 16.4 23 Noroeste 43 Noroeste 0 -- -- 71
2019-12-06 00:00:00 15.2 18 Noroeste 55 Noroeste 2 -- -- 76
2019-12-05 23:00:00 17.5 20 Noroeste 47 Noroeste 0 -- -- 65
2019-12-05 22:00:00 16.4 17 Noroeste 46 Noroeste 3.9 -- -- 73
2019-12-05 21:00:00 17.2 33 Noroeste 49 Noroeste 0.1 -- -- 65
2019-12-05 20:00:00 17.6 23 Noroeste 45 Noroeste 0 -- -- 60
2019-12-05 19:00:00 17.6 23 Noroeste 49 Norte 0 -- -- 62
2019-12-05 18:00:00 19.5 27 Noroeste 50 Norte 0.2 -- -- 56
2019-12-05 17:00:00 17.9 31 Norte 56 Noroeste 0.1 -- -- 57
2019-12-05 16:00:00 18.3 27 Noroeste 48 Norte 0 -- -- 60
2019-12-05 15:00:00 18.8 26 Noroeste 51 Noroeste 0 -- -- 58
2019-12-05 14:00:00 18.4 30 Noroeste 58 Noroeste 0.1 -- -- 58
2019-12-05 13:00:00 16.4 22 Noroeste 69 Norte 3.3 -- -- 77
2019-12-05 12:00:00 17.5 30 Noroeste 64 Noroeste 0.1 -- -- 64
2019-12-05 11:00:00 17.8 28 Noroeste 53 Norte 0 -- -- 58
2019-12-05 10:00:00 18.7 23 Noroeste 50 Noroeste 0 -- -- 53
2019-12-05 09:00:00 18.2 32 Noroeste 46 Noroeste 0 -- -- 57
2019-12-05 08:00:00 17.9 23 Noroeste 45 Noroeste 0 -- -- 57
2019-12-05 07:00:00 18 27 Noroeste 48 Norte 0 -- -- 53
2019-12-05 06:00:00 18 27 Noroeste 54 Oeste 0 -- -- 54
2019-12-05 05:00:00 18.2 24 Noroeste 45 Norte 0 -- -- 56
2019-12-05 04:00:00 17.3 21 Noroeste 39 Noroeste 1.5 -- -- 64
2019-12-05 03:00:00 15.1 21 Noroeste 47 Noroeste 12.5 -- -- 92
2019-12-05 02:00:00 15.7 27 Noroeste 51 Noroeste 7 -- -- 92
2019-12-05 01:00:00 16.2 23 Noroeste 48 Oeste 2.8 -- -- 90
2019-12-05 00:00:00 19.8 13 Oeste 31 Noroeste 0 -- -- 59
2019-12-04 23:00:00 19.2 9 Oeste 32 Noroeste 0 -- -- 63
2019-12-04 22:00:00 19.1 13 Noroeste 44 Noroeste 0 -- -- 65
2019-12-04 21:00:00 19.2 22 Noroeste 50 Noroeste 0 -- -- 63
2019-12-04 20:00:00 19.4 24 Noroeste 48 Noroeste 0 -- -- 62
2019-12-04 19:00:00 19.3 13 Noroeste 37 Noroeste 0 -- -- 64
2019-12-04 18:00:00 19.4 20 Noroeste 43 Oeste 0 -- -- 64
2019-12-04 17:00:00 19.4 20 Noroeste 42 Noroeste 0 -- -- 65
2019-12-04 16:00:00 19.7 21 Noroeste 39 Oeste 0 -- -- 60
2019-12-04 15:00:00 22.1 15 Noroeste 35 Noroeste 0 -- -- 49
2019-12-04 14:00:00 19.8 24 Noroeste 44 Noroeste 0 -- -- 53
2019-12-04 13:00:00 20.6 23 Noroeste 48 Noroeste 0 -- -- 62
2019-12-04 12:00:00 20.5 13 Noroeste 29 Noroeste 0 -- -- 54
2019-12-04 11:00:00 19.6 18 Norte 29 Norte 0 -- -- 58
2019-12-04 10:00:00 20 13 Noroeste 27 Noroeste 0 -- -- 56
2019-12-04 09:00:00 19.6 4 Oeste 23 Oeste 0 -- -- 60
2019-12-04 08:00:00 17.9 8 Oeste 22 Oeste 0 -- -- 62
2019-12-04 07:00:00 17.2 6 Oeste 24 Oeste 0 -- -- 65
2019-12-04 06:00:00 17.7 13 Noroeste 33 Noroeste 0 -- -- 67
2019-12-04 05:00:00 18 12 Oeste 19 Oeste 0 -- -- 62
2019-12-04 04:00:00 17.9 12 Oeste 18 Oeste 0 -- -- 62
2019-12-04 03:00:00 18 11 Oeste 18 Oeste 0 -- -- 62
2019-12-04 02:00:00 18.4 9 Noroeste 16 Norte 0 -- -- 59
2019-12-04 01:00:00 18.7 8 Noroeste 22 Noroeste 0 -- -- 58
2019-12-04 00:00:00 18.7 13 Noroeste 26 Noroeste 0 -- -- 57
2019-12-03 23:00:00 18.9 12 Noroeste 27 Norte 0 -- -- 57
2019-12-03 22:00:00 19 18 Noroeste 30 Noroeste 0 -- -- 56
2019-12-03 21:00:00 19.5 10 Noroeste 24 Noroeste 0 -- -- 55
2019-12-03 20:00:00 19 14 Noroeste 24 Noroeste 0 -- -- 55
2019-12-03 19:00:00 20.2 17 Noroeste 27 Noroeste 0 -- -- 54
2019-12-03 18:00:00 19.3 14 Noroeste 31 Noroeste 0 -- -- 54
2019-12-03 17:00:00 19.2 20 Noroeste 55 Noroeste 0 -- -- 57
2019-12-03 16:00:00 19.4 17 Noroeste 35 Noroeste 0 -- -- 58
2019-12-03 15:00:00 19.6 19 Noroeste 44 Noroeste 0 -- -- 59
2019-12-03 14:00:00 21 16 Noroeste 38 Norte 0 -- -- 52
2019-12-03 13:00:00 19.9 19 Noroeste 40 Norte 0 -- -- 56
2019-12-03 12:00:00 20.6 21 Norte 41 Norte 0 -- -- 59
2019-12-03 11:00:00 19.9 20 Noroeste 44 Noroeste 0 -- -- 52
2019-12-03 10:00:00 19.9 20 Noroeste 42 Noroeste 0 -- -- 53
2019-12-03 09:00:00 19 21 Noroeste 45 Noroeste 0 -- -- 59
2019-12-03 08:00:00 18.9 21 Noroeste 38 Noroeste 0 -- -- 59
2019-12-03 07:00:00 18.7 13 Noroeste 37 Noroeste 0 -- -- 62
2019-12-03 06:00:00 17.9 17 Noroeste 45 Noroeste 0 -- -- 65
2019-12-03 05:00:00 18.8 19 Noroeste 37 Noroeste 0 -- -- 64
2019-12-03 04:00:00 18.7 18 Noroeste 33 Noroeste 0 -- -- 64
2019-12-03 03:00:00 18.5 20 Noroeste 36 Noroeste 0 -- -- 67
2019-12-03 02:00:00 18.5 21 Noroeste 38 Norte 0 -- -- 63
2019-12-03 01:00:00 17.8 14 Noroeste 31 Noroeste 0 -- -- 70
2019-12-03 00:00:00 17 25 Noroeste 45 Noroeste 0.8 -- -- 70
2019-12-02 23:00:00 18.1 14 Noroeste 39 Noroeste 0 -- -- 73
2019-12-02 22:00:00 17.9 15 Norte 42 Norte 0 -- -- 73
2019-12-02 21:00:00 18 20 Noroeste 43 Norte 0 -- -- 71
2019-12-02 20:00:00 18.7 17 Noroeste 35 Noroeste 0 -- -- 68
2019-12-02 19:00:00 18.8 20 Norte 40 Noroeste 0 -- -- 76
2019-12-02 18:00:00 19.3 22 Noroeste 40 Noroeste 0 -- -- 65
2019-12-02 17:00:00 20.6 21 Noroeste 40 Noroeste 0 -- -- 63
2019-12-02 16:00:00 19.9 19 Noroeste 43 Noroeste 0 -- -- 63
2019-12-02 15:00:00 21.9 20 Noroeste 41 Noroeste 0 -- -- 57
2019-12-02 14:00:00 20.3 22 Noroeste 42 Noroeste 0 -- -- 57
2019-12-02 13:00:00 20.4 24 Noroeste 41 Noroeste 0 -- -- 58
2019-12-02 12:00:00 20.7 18 Noroeste 36 Noroeste 0 -- -- 65
2019-12-02 11:00:00 19.2 19 Noroeste 38 Noroeste 0.1 -- -- 73
2019-12-02 10:00:00 18.6 11 Noroeste 34 Noroeste 0.3 -- -- 79
2019-12-02 09:00:00 18.4 17 Noroeste 31 Noroeste 0 -- -- 75
2019-12-02 08:00:00 19.3 17 Noroeste 24 Norte 0 -- -- 69
2019-12-02 07:00:00 19 11 Noroeste 29 Norte 0 -- -- 73
2019-12-02 06:00:00 19.1 17 Noroeste 26 Noroeste 0 -- -- 69
2019-12-02 05:00:00 19.3 13 Noroeste 29 Noroeste 0 -- -- 69
2019-12-02 04:00:00 19.1 13 Noroeste 27 Noroeste 0 -- -- 74
2019-12-02 03:00:00 18.7 14 Noroeste 25 Oeste 0 -- -- 68
2019-12-02 02:00:00 18.4 7 Oeste 22 Oeste 0 -- -- 69
2019-12-02 01:00:00 18.5 11 Oeste 19 Noroeste 0 -- -- 70
2019-12-02 00:00:00 18.6 13 Noroeste 22 Oeste 0 -- -- 70
2019-12-01 23:00:00 18.6 10 Oeste 17 Noroeste 0 -- -- 70
2019-12-01 22:00:00 19.6 9 Noroeste 15 Noroeste 0 -- -- 67
2019-12-01 21:00:00 19.4 6 Noroeste 12 Nordeste 0 -- -- 65
2019-12-01 20:00:00 20.8 9 Norte 22 Nordeste 0 -- -- 61
2019-12-01 19:00:00 19.7 6 Norte 20 Nordeste 0 -- -- 67
2019-12-01 18:00:00 19.7 9 Norte 23 Norte 0 -- -- 67
2019-12-01 17:00:00 19.9 11 Norte 30 Nordeste 0 -- -- 67
2019-12-01 16:00:00 19.7 12 Norte 29 Norte 0 -- -- 68
2019-12-01 15:00:00 20.2 13 Nordeste 24 Nordeste 0 -- -- 69
2019-12-01 14:00:00 20.9 9 Nordeste 22 Nordeste 0 -- -- 62
2019-12-01 13:00:00 21.2 6 Norte 22 Nordeste 0 -- -- 64
2019-12-01 12:00:00 20.3 8 Norte 18 Nordeste 0 -- -- 68
2019-12-01 11:00:00 20.3 6 Norte 18 Norte 0 -- -- 68
2019-12-01 10:00:00 19.6 10 Norte 22 Norte 0 -- -- 70
2019-12-01 09:00:00 19.4 9 Norte 20 Norte 0 -- -- 70
2019-12-01 08:00:00 20.5 10 Norte 18 Norte 0 -- -- 70
2019-12-01 07:00:00 19.4 10 Norte 19 Norte 0 -- -- 74
2019-12-01 06:00:00 19.3 10 Norte 17 Noroeste 0 -- -- 75
2019-12-01 05:00:00 19.2 8 Norte 16 Norte 0 -- -- 76
2019-12-01 04:00:00 19.4 6 Norte 16 Norte 0 -- -- 76
2019-12-01 03:00:00 19.3 8 Norte 16 Norte 0 -- -- 78
2019-12-01 02:00:00 19.4 10 Norte 18 Norte 0 -- -- 79
2019-12-01 01:00:00 19.6 10 Norte 20 Norte 0 -- -- 81
2019-12-01 00:00:00 19.7 13 Norte 20 Norte 0 -- -- 83
2019-11-30 23:00:00 20 12 Noroeste 19 Norte 0 -- -- 83
2019-11-30 22:00:00 20 8 Norte 14 Norte 0 -- -- 84
2019-11-30 21:00:00 20.1 9 Noroeste 14 Noroeste 0 -- -- 84
2019-11-30 20:00:00 20 5 Noroeste 12 Noroeste 0 -- -- 85
2019-11-30 19:00:00 20.2 5 Norte 11 Norte 0 -- -- 84
2019-11-30 18:00:00 21.6 4 Nordeste 15 Nordeste 0 -- -- 83
2019-11-30 17:00:00 20.7 6 Nordeste 17 Nordeste 0 -- -- 81
2019-11-30 16:00:00 21 11 Nordeste 18 Nordeste 0 -- -- 78
2019-11-30 15:00:00 21.7 11 Nordeste 21 Nordeste 0 -- -- 70
2019-11-30 14:00:00 22.9 8 Nordeste 14 Nordeste 0 -- -- 69
2019-11-30 13:00:00 23.9 6 Este 10 Este 0 -- -- 67
2019-11-30 12:00:00 27 3 Sudeste 9 Este 0 -- -- 58
2019-11-30 11:00:00 24 4 Este 7 Este 0 -- -- 63
2019-11-30 10:00:00 24.7 0 Calma 6 Sudeste 0 -- -- 62
2019-11-30 09:00:00 22.7 0 Calma 9 Noroeste 0 -- -- 73
2019-11-30 08:00:00 20.2 5 Noroeste 11 Noroeste 0 -- -- 78
2019-11-30 07:00:00 19.8 9 Noroeste 12 Noroeste 0 -- -- 78
2019-11-30 06:00:00 19.4 6 Noroeste 18 Noroeste 0 -- -- 80
2019-11-30 05:00:00 19.8 9 Noroeste 15 Noroeste 0 -- -- 78
2019-11-30 04:00:00 20.6 5 Noroeste 9 Noroeste 0 -- -- 69
2019-11-30 03:00:00 20.8 6 Noroeste 13 Norte 0 -- -- 64
2019-11-30 02:00:00 21.9 6 Noroeste 8 Oeste 0 -- -- 53
2019-11-30 01:00:00 20.7 3 Oeste 13 Noroeste 0 -- -- 69
2019-11-30 00:00:00 20.2 5 Noroeste 14 Oeste 0 -- -- 83
2019-11-29 23:00:00 20 8 Noroeste 17 Noroeste 0 -- -- 81
2019-11-29 22:00:00 19.8 10 Noroeste 15 Oeste 0 -- -- 84
2019-11-29 21:00:00 20.1 6 Noroeste 10 Noroeste 0 -- -- 85
2019-11-29 20:00:00 20.4 9 Noroeste 14 Noroeste 0 -- -- 84
2019-11-29 19:00:00 20.6 6 Noroeste 10 Noroeste 0 -- -- 84
2019-11-29 18:00:00 21.5 0 Calma 7 Este 0 -- -- 74
2019-11-29 17:00:00 24.9 3 Sudeste 9 Este 0 -- -- 64
2019-11-29 16:00:00 23.3 5 Este 10 Este 0 -- -- 70
2019-11-29 15:00:00 25.3 3 Sudeste 12 Este 0 -- -- 63
2019-11-29 14:00:00 24.1 4 Este 10 Este 0 -- -- 64
2019-11-29 13:00:00 27.4 4 Sudeste 9 Sudeste 0 -- -- 54
2019-11-29 12:00:00 26.4 4 Sudeste 10 Nordeste 0 -- -- 61
2019-11-29 11:00:00 22.2 6 Este 12 Este 0 -- -- 72
2019-11-29 10:00:00 22.3 4 Nordeste 9 Nordeste 0 -- -- 68
2019-11-29 09:00:00 22.3 0 Calma 6 Noroeste 0 -- -- 72
2019-11-29 08:00:00 19.4 3 Noroeste 11 Oeste 0 -- -- 82
2019-11-29 07:00:00 19.3 7 Noroeste 12 Noroeste 0 -- -- 81
2019-11-29 06:00:00 19.2 5 Noroeste 11 Noroeste 0 -- -- 81
2019-11-29 05:00:00 19 6 Noroeste 15 Noroeste 0 -- -- 83
2019-11-29 04:00:00 19 11 Noroeste 17 Noroeste 0 -- -- 81
2019-11-29 03:00:00 19.2 10 Noroeste 20 Oeste 0 -- -- 79
2019-11-29 02:00:00 19.3 14 Noroeste 20 Oeste 0 -- -- 78
2019-11-29 01:00:00 19 10 Oeste 18 Oeste 0 -- -- 76
2019-11-29 00:00:00 19.6 12 Noroeste 17 Noroeste 0 -- -- 76
2019-11-28 23:00:00 19.4 10 Oeste 17 Noroeste 0 -- -- 80
2019-11-28 22:00:00 19.7 8 Noroeste 14 Norte 0 -- -- 81
2019-11-28 21:00:00 19.7 9 Norte 14 Norte 0 -- -- 81
2019-11-28 20:00:00 20.9 8 Norte 15 Noroeste 0 -- -- 79
2019-11-28 19:00:00 19.6 5 Norte 16 Norte 0 -- -- 79
2019-11-28 18:00:00 19.5 10 Norte 16 Norte 0 -- -- 78
2019-11-28 17:00:00 19.8 8 Nordeste 16 Nordeste 0 -- -- 75
2019-11-28 16:00:00 19.8 6 Norte 15 Nordeste 0 -- -- 73
2019-11-28 15:00:00 20.3 7 Nordeste 14 Nordeste 0 -- -- 70
2019-11-28 14:00:00 20.1 10 Nordeste 18 Nordeste 0 -- -- 70
2019-11-28 13:00:00 20.4 8 Nordeste 17 Nordeste 0 -- -- 70
2019-11-28 12:00:00 20.9 11 Nordeste 19 Nordeste 0 -- -- 67
2019-11-28 11:00:00 20.3 8 Nordeste 15 Nordeste 0 -- -- 68
2019-11-28 10:00:00 20.5 5 Nordeste 15 Nordeste 0 -- -- 67
2019-11-28 09:00:00 19.7 6 Norte 12 Norte 0 -- -- 70
2019-11-28 08:00:00 19.3 4 Norte 13 Nordeste 0 -- -- 70
2019-11-28 07:00:00 19.1 6 Nordeste 17 Norte 0 -- -- 71
2019-11-28 06:00:00 19.1 8 Nordeste 15 Nordeste 0 -- -- 73
2019-11-28 05:00:00 19.1 6 Nordeste 19 Nordeste 0 -- -- 71
2019-11-28 04:00:00 19 6 Norte 15 Norte 0 -- -- 72
2019-11-28 03:00:00 19.2 8 Norte 15 Nordeste 0 -- -- 72
2019-11-28 02:00:00 19.3 7 Norte 18 Nordeste 0 -- -- 73
2019-11-28 01:00:00 19.3 10 Norte 18 Norte 0 -- -- 74
2019-11-28 00:00:00 19.2 12 Norte 19 Norte 0 -- -- 74
2019-11-27 23:00:00 19.4 11 Norte 20 Norte 0 -- -- 73
2019-11-27 22:00:00 19.3 15 Norte 20 Norte 0 -- -- 73
2019-11-27 21:00:00 19.3 14 Norte 21 Norte 0 -- -- 72
2019-11-27 20:00:00 19.3 12 Norte 20 Norte 0 -- -- 73
2019-11-27 19:00:00 19.4 11 Norte 22 Norte 0 -- -- 72
2019-11-27 18:00:00 20.9 8 Noroeste 21 Norte 0 -- -- 68
2019-11-27 17:00:00 21 12 Norte 23 Norte 0 -- -- 66
2019-11-27 16:00:00 20 9 Norte 21 Nordeste 0 -- -- 65
2019-11-27 15:00:00 20.9 10 Nordeste 23 Nordeste 0 -- -- 68
2019-11-27 14:00:00 20.9 9 Nordeste 20 Norte 0 -- -- 67
2019-11-27 13:00:00 20.5 8 Nordeste 23 Nordeste 0 -- -- 65
2019-11-27 05:00:00 19.3 10 Noroeste 17 Noroeste 0 -- -- 73
2019-11-27 04:00:00 19.3 13 Noroeste 22 Noroeste 0 -- -- 70
2019-11-27 03:00:00 19.4 11 Noroeste 21 Noroeste 0 -- -- 70
2019-11-27 02:00:00 19.3 12 Noroeste 16 Noroeste 0 -- -- 70
2019-11-27 01:00:00 19.4 11 Norte 18 Noroeste 0 -- -- 72
2019-11-27 00:00:00 19.4 9 Norte 18 Norte 0 -- -- 71
2019-11-26 23:00:00 19.4 9 Norte 18 Noroeste 0 -- -- 70
2019-11-26 22:00:00 19.4 11 Norte 25 Noroeste 0 -- -- 70
2019-11-26 21:00:00 19.5 15 Norte 23 Norte 0 -- -- 70
2019-11-26 20:00:00 19.6 11 Noroeste 21 Norte 0 -- -- 70
2019-11-26 19:00:00 20.5 13 Norte 26 Norte 0 -- -- 69
2019-11-26 18:00:00 20.7 16 Norte 26 Noroeste 0 -- -- 68
2019-11-26 17:00:00 20.1 15 Norte 31 Norte 0 -- -- 67
2019-11-26 16:00:00 20.3 15 Noroeste 34 Noroeste 0 -- -- 65
2019-11-26 15:00:00 21.1 18 Noroeste 32 Noroeste 0 -- -- 64
2019-11-26 14:00:00 20.7 10 Nordeste 22 Nordeste 0 -- -- 64
2019-11-26 13:00:00 22.1 13 Nordeste 21 Nordeste 0 -- -- 64
2019-11-26 12:00:00 22.2 7 Norte 21 Nordeste 0 -- -- 62
2019-11-26 11:00:00 20.1 6 Norte 17 Norte 0 -- -- 67
2019-11-26 10:00:00 20.5 8 Norte 18 Nordeste 0 -- -- 67
2019-11-26 09:00:00 19.5 5 Norte 17 Nordeste 0 -- -- 69
2019-11-26 08:00:00 19.2 9 Norte 15 Norte 0 -- -- 69
2019-11-26 07:00:00 19.2 7 Norte 20 Norte 0 -- -- 68
2019-11-26 06:00:00 19.1 8 Norte 21 Nordeste 0 -- -- 69
2019-11-26 05:00:00 19.1 7 Norte 18 Norte 0 -- -- 69
2019-11-26 04:00:00 19.2 12 Norte 21 Nordeste 0 -- -- 69
2019-11-26 03:00:00 19.3 10 Norte 18 Norte 0 -- -- 70
2019-11-26 02:00:00 19.3 10 Norte 19 Noroeste 0 -- -- 69
2019-11-26 01:00:00 19.3 11 Noroeste 21 Norte 0 -- -- 67
2019-11-26 00:00:00 19.5 10 Norte 18 Norte 0 -- -- 69
2019-11-25 23:00:00 19.4 11 Norte 20 Nordeste 0 -- -- 69
2019-11-25 22:00:00 19.5 9 Norte 21 Norte 0 -- -- 68
2019-11-25 21:00:00 19.5 9 Norte 20 Norte 0 -- -- 69
2019-11-25 20:00:00 19.5 11 Norte 21 Norte 0 -- -- 70
2019-11-25 19:00:00 19.5 11 Norte 22 Norte 0 -- -- 69
2019-11-25 18:00:00 21.2 14 Norte 24 Norte 0 -- -- 65
2019-11-25 17:00:00 19.7 15 Norte 25 Norte 0 -- -- 65
2019-11-25 16:00:00 20 12 Norte 21 Norte 0 -- -- 64
2019-11-25 15:00:00 20.3 9 Norte 24 Norte 0 -- -- 61
2019-11-25 14:00:00 22.3 9 Nordeste 25 Nordeste 0 -- -- 60
2019-11-25 13:00:00 20.8 8 Norte 20 Nordeste 0 -- -- 62
2019-11-25 12:00:00 20.5 12 Nordeste 28 Nordeste 0 -- -- 62
2019-11-25 11:00:00 21.6 13 Nordeste 27 Nordeste 0 -- -- 62
2019-11-25 10:00:00 21 9 Nordeste 23 Nordeste 0 -- -- 63
2019-11-25 09:00:00 19.6 9 Oeste 19 Oeste 0 -- -- 64
2019-11-25 08:00:00 18.8 10 Oeste 20 Noroeste 0 -- -- 64
2019-11-25 07:00:00 18.5 13 Noroeste 20 Oeste 0 -- -- 64
2019-11-25 06:00:00 18.8 8 Norte 19 Norte 0 -- -- 63
2019-11-25 05:00:00 18.9 8 Noroeste 20 Noroeste 0 -- -- 63
2019-11-25 04:00:00 18.9 8 Norte 17 Noroeste 0 -- -- 62
2019-11-25 03:00:00 19.2 8 Noroeste 21 Norte 0 -- -- 59
2019-11-25 02:00:00 19.4 11 Norte 22 Nordeste 0 -- -- 59
2019-11-25 01:00:00 19.5 10 Norte 22 Norte 0 -- -- 60
2019-11-25 00:00:00 19.6 12 Nordeste 21 Nordeste 0 -- -- 61
2019-11-24 23:00:00 19.6 13 Noroeste 27 Norte 0 -- -- 59
2019-11-24 22:00:00 19.6 13 Norte 26 Norte 0 -- -- 62
2019-11-24 21:00:00 19.8 13 Noroeste 26 Nordeste 0 -- -- 59
2019-11-24 20:00:00 19.9 13 Norte 26 Norte 0 -- -- 61
2019-11-24 19:00:00 21.1 13 Norte 25 Norte 0 -- -- 65
2019-11-24 18:00:00 19.8 13 Norte -- -- -- -- -- 67
2019-11-24 17:00:00 20.2 13 Norte 25 Norte 0 -- -- 65
2019-11-24 16:00:00 20.3 16 Norte 30 Norte 0 -- -- 64
2019-11-24 15:00:00 20.1 14 Norte 24 Norte 0 -- -- 69
2019-11-24 14:00:00 20.4 11 Norte 30 Noroeste 0 -- -- 69
2019-11-24 13:00:00 20.9 13 Norte 29 Oeste 0 -- -- 64
2019-11-24 12:00:00 20.2 13 Norte 27 Oeste 0.1 -- -- 71
2019-11-24 11:00:00 19.6 13 Noroeste 24 Noroeste 0.4 -- -- 76
2019-11-24 10:00:00 20.1 13 Noroeste 26 Noroeste 0 -- -- 72
2019-11-24 09:00:00 19.6 14 Norte 22 Oeste 0 -- -- 75
2019-11-24 08:00:00 19.2 13 Noroeste 22 Noroeste 0 -- -- 78
2019-11-24 07:00:00 18.7 12 Noroeste 27 Norte 0 -- -- 81
2019-11-24 06:00:00 19.4 10 Noroeste 20 Noroeste 0 -- -- 79
2019-11-24 05:00:00 19.4 8 Noroeste 19 Noroeste 0 -- -- 78
2019-11-24 04:00:00 19.6 14 Noroeste 22 Noroeste 0 -- -- 76
2019-11-24 03:00:00 19.6 12 Noroeste 20 Noroeste 0 -- -- 78
2019-11-24 02:00:00 19.8 13 Noroeste 23 Noroeste 0 -- -- 78
2019-11-24 01:00:00 20 18 Noroeste 26 Noroeste 0 -- -- 78
2019-11-24 00:00:00 20.1 15 Noroeste 30 Noroeste 0 -- -- 76
2019-11-23 23:00:00 20.1 13 Noroeste 28 Noroeste 0 -- -- 78
2019-11-23 22:00:00 20.1 12 Noroeste 23 Noroeste 0 -- -- 79
2019-11-23 21:00:00 21 9 Noroeste 23 Noroeste 0 -- -- 78
2019-11-23 20:00:00 20.3 12 Noroeste 27 Noroeste 0 -- -- 78
2019-11-23 19:00:00 20.4 15 Noroeste 22 Noroeste 0 -- -- 81
2019-11-23 18:00:00 20.8 13 Norte 32 Noroeste 0 -- -- 81
2019-11-23 17:00:00 20.6 15 Noroeste 33 Noroeste 0 -- -- 84
2019-11-23 16:00:00 20.1 21 Noroeste 41 Norte 1.8 -- -- 88
2019-11-23 15:00:00 21.6 24 Noroeste 38 Noroeste 0 -- -- 69
2019-11-23 14:00:00 22.4 17 Noroeste 41 Noroeste 0 -- -- 68
2019-11-23 13:00:00 21.4 19 Noroeste 40 Noroeste 0 -- -- 75
2019-11-23 12:00:00 22.2 22 Noroeste 41 Noroeste 0 -- -- 69
2019-11-23 11:00:00 22.2 19 Noroeste 42 Noroeste 0 -- -- 66
2019-11-23 10:00:00 21.5 22 Noroeste 47 Noroeste 0 -- -- 78
2019-11-23 09:00:00 21.2 16 Noroeste 31 Noroeste 0 -- -- 81
2019-11-23 08:00:00 20.3 13 Noroeste 41 Noroeste 0.1 -- -- 83
2019-11-23 07:00:00 20 15 Noroeste 32 Noroeste 0.2 -- -- 84
2019-11-23 06:00:00 19.8 15 Noroeste 30 Noroeste 0.1 -- -- 83
2019-11-23 05:00:00 21 11 Noroeste 33 Noroeste 0 -- -- 73
2019-11-23 04:00:00 20.8 15 Noroeste 28 Noroeste 0 -- -- 73
2019-11-23 03:00:00 20.6 5 Noroeste 27 Oeste 0 -- -- 73
2019-11-23 02:00:00 20.5 7 Noroeste 24 Noroeste 0 -- -- 71
2019-11-23 01:00:00 20.9 13 Noroeste 25 Noroeste 0 -- -- 70
2019-11-23 00:00:00 19.9 3 Noroeste 16 Oeste 0 -- -- 74
2019-11-22 23:00:00 20 10 Oeste 18 Oeste 0 -- -- 74
2019-11-22 22:00:00 20.3 5 Noroeste 12 Noroeste 0 -- -- 74
2019-11-22 21:00:00 21.3 2 Noroeste 19 Noroeste 0 -- -- 70
2019-11-22 20:00:00 20.8 15 Noroeste 23 Oeste 0 -- -- 68
2019-11-22 19:00:00 21.1 13 Noroeste 24 Noroeste 0 -- -- 65
2019-11-22 18:00:00 20.6 14 Noroeste 33 Noroeste 0 -- -- 69
2019-11-22 17:00:00 21.1 18 Noroeste 32 Noroeste 0 -- -- 67
2019-11-22 16:00:00 21.5 19 Noroeste 28 Noroeste 0 -- -- 65
2019-11-22 15:00:00 21 22 Noroeste 36 Noroeste 0 -- -- 65
2019-11-22 14:00:00 20.8 19 Noroeste 36 Noroeste 0 -- -- 63
2019-11-22 13:00:00 21.8 15 Noroeste 28 Noroeste 0 -- -- 63
2019-11-22 12:00:00 21.2 17 Noroeste 28 Noroeste 0 -- -- 65
2019-11-22 11:00:00 20.7 15 Noroeste 24 Noroeste 0 -- -- 75
2019-11-22 10:00:00 19.9 11 Noroeste 26 Noroeste 0.1 -- -- 81
2019-11-22 09:00:00 18.8 15 Noroeste 30 Noroeste 0.6 -- -- 88
2019-11-22 08:00:00 18.8 18 Noroeste 28 Noroeste 0 -- -- 87
2019-11-22 07:00:00 18.9 14 Noroeste 29 Noroeste 0 -- -- 86
2019-11-22 06:00:00 18.7 4 Noroeste 14 Noroeste 0 -- -- 79
2019-11-22 05:00:00 19.3 9 Oeste 19 Oeste 0 -- -- 73
2019-11-22 04:00:00 18.9 12 Noroeste 18 Noroeste 0 -- -- 72
2019-11-22 03:00:00 18.7 0 Calma -- -- 0 -- -- 78
2019-11-22 02:00:00 18.6 0 Calma -- -- 0 -- -- 76
2019-11-22 01:00:00 18.6 0 Calma 6 Sudoeste 0 -- -- 76
2019-11-22 00:00:00 19 0 Calma 10 Sur 0 -- -- 75
2019-11-21 23:00:00 19.1 5 Sur 7 Sur 0 -- -- 76
2019-11-21 22:00:00 19.2 4 Sudoeste 6 Oeste 0 -- -- 74
2019-11-21 21:00:00 19.3 0 Calma 8 Sur 0 -- -- 73
2019-11-21 20:00:00 20.3 0 Calma 5 Sur 0 -- -- 70
2019-11-21 19:00:00 19.9 0 Calma 11 Sur 0 -- -- 70
2019-11-21 18:00:00 20.7 6 Sudeste 10 Sudeste 0 -- -- 67
2019-11-21 17:00:00 24.5 2 Sudeste 9 Nordeste 0 -- -- 60
2019-11-21 16:00:00 22.1 5 Este 12 Sudeste 0 -- -- 62
2019-11-21 15:00:00 22.7 9 Sudeste 14 Sudeste 0 -- -- 61
2019-11-21 14:00:00 23.2 3 Sudeste 10 Este 0 -- -- 63
2019-11-21 13:00:00 21.8 5 Este 12 Este 0 -- -- 65
2019-11-21 12:00:00 21.6 5 Este 12 Este 0 -- -- 68
2019-11-21 11:00:00 21 9 Nordeste 13 Nordeste 0 -- -- 68
2019-11-21 10:00:00 21.6 0 Calma 9 Noroeste 0 -- -- 69
2019-11-21 09:00:00 19.3 5 Noroeste 14 Noroeste 0 -- -- 73
2019-11-21 08:00:00 19.1 6 Oeste 9 Oeste 0 -- -- 73
2019-11-21 07:00:00 -- -- -- -- -- -- -- -- --
2019-11-21 06:00:00 -- -- -- -- -- -- -- -- --
2019-11-21 05:00:00 -- -- -- -- -- -- -- -- --
2019-11-21 04:00:00 -- -- -- -- -- -- -- -- --
2019-11-21 03:00:00 -- -- -- -- -- -- -- -- --
2019-11-21 02:00:00 -- -- -- -- -- -- -- -- --
2019-11-21 01:00:00 -- -- -- -- -- -- -- -- --
2019-11-21 00:00:00 -- -- -- -- -- -- -- -- --
2019-11-20 23:00:00 -- -- -- -- -- -- -- -- --
2019-11-20 22:00:00 -- -- -- -- -- -- -- -- --
2019-11-20 21:00:00 -- -- -- -- -- -- -- -- --
2019-11-20 20:00:00 20.3 4 Sur 12 Noroeste 0 -- -- 67
2019-11-20 19:00:00 20.5 8 Noroeste 16 Noroeste 0 -- -- 63
2019-11-20 18:00:00 20.3 8 Noroeste 20 Noroeste 0 -- -- 69
2019-11-20 17:00:00 21.3 7 Nordeste 13 Nordeste 0 -- -- 61
2019-11-20 16:00:00 24.7 0 Calma 10 Este 0 -- -- 51
2019-11-20 15:00:00 24.8 5 Sudeste 16 Nordeste 0 -- -- 54
2019-11-20 14:00:00 22 11 Nordeste 19 Nordeste 0 -- -- 59
2019-11-20 13:00:00 21.6 10 Nordeste 17 Norte 0 -- -- 56
2019-11-20 12:00:00 25.9 8 Sudeste 11 Sur 0 -- -- 50
2019-11-20 11:00:00 25.9 3 Sudeste 8 Sudeste 0 -- -- 51
2019-11-20 10:00:00 24 7 Sudeste 9 Sudeste 0 -- -- 49
2019-11-20 09:00:00 22.1 5 Sudeste 9 Sudeste 0 -- -- 57
2019-11-20 08:00:00 19.2 6 Sur 10 Sur 0 -- -- 65
2019-11-20 07:00:00 19.8 4 Sur 11 Sudoeste 0 -- -- 58
2019-11-20 06:00:00 18.1 5 Oeste 15 Oeste 0 -- -- 59
2019-11-20 05:00:00 17.9 8 Oeste 13 Sudoeste 0 -- -- 61
2019-11-20 04:00:00 18 9 Sudoeste 20 Sudoeste 0 -- -- 67
2019-11-20 03:00:00 18 10 Sudoeste 21 Oeste 0 -- -- 69
2019-11-20 02:00:00 17.9 10 Oeste 16 Oeste 0 -- -- 70
2019-11-20 01:00:00 18.5 6 Oeste 19 Oeste 0 -- -- 70
2019-11-20 00:00:00 18.3 6 Oeste 18 Sudoeste 0 -- -- 72
2019-11-19 23:00:00 18.6 9 Oeste 16 Oeste 0 -- -- 73
2019-11-19 22:00:00 -- 5 Noroeste 18 Noroeste 0 -- -- --
2019-11-19 21:00:00 18.7 6 Oeste 17 Oeste 0 -- -- 75
2019-11-19 20:00:00 18.9 9 Oeste 15 Noroeste 0 -- -- 74
2019-11-19 19:00:00 19.2 9 Noroeste 15 Noroeste 0 -- -- 75
2019-11-19 18:00:00 19.5 4 Oeste 21 Oeste 0 -- -- 76
2019-11-19 17:00:00 19.8 8 Oeste 28 Noroeste 0 -- -- 73
2019-11-19 16:00:00 20.2 17 Noroeste 31 Noroeste 0 -- -- 68
2019-11-19 15:00:00 20.2 18 Noroeste 36 Noroeste 0 -- -- 67
2019-11-19 14:00:00 19.6 16 Noroeste 35 Noroeste 0 -- -- 75
2019-11-19 13:00:00 17.5 17 Noroeste 39 Noroeste 0.4 -- -- 84
2019-11-19 12:00:00 17.2 24 Norte 39 Noroeste 3 -- -- 86
2019-11-19 11:00:00 17.4 17 Norte 28 Norte 1.9 -- -- 86
2019-11-19 10:00:00 18.6 17 Noroeste 32 Oeste 0 -- -- 74
2019-11-19 09:00:00 18.9 9 Noroeste 27 Oeste 0 -- -- 72
2019-11-19 08:00:00 18.7 10 Oeste 24 Oeste 0 -- -- 70
2019-11-19 07:00:00 18.2 14 Oeste 22 Oeste 0 -- -- 70
2019-11-19 06:00:00 18 8 Oeste 21 Sudoeste 0 -- -- 70
2019-11-19 05:00:00 18.1 12 Oeste 24 Noroeste 0 -- -- 70
2019-11-19 04:00:00 17.8 9 Oeste 25 Oeste 0 -- -- 70
2019-11-19 03:00:00 17.8 9 Oeste 21 Oeste 0 -- -- 73
2019-11-19 02:00:00 18 12 Oeste 23 Oeste 0 -- -- 73
2019-11-19 01:00:00 17.8 11 Oeste 22 Sudoeste 0.1 -- -- 73
2019-11-19 00:00:00 18.2 10 Oeste 19 Oeste 0 -- -- 69
2019-11-18 23:00:00 18.5 10 Oeste 18 Noroeste 0 -- -- 69
2019-11-18 22:00:00 18.7 8 Noroeste 19 Noroeste 0 -- -- 68
2019-11-18 21:00:00 18.9 11 Noroeste 19 Noroeste 0 -- -- 68
2019-11-18 20:00:00 19.2 11 Norte 19 Norte 0 -- -- 68
2019-11-18 19:00:00 19 10 Noroeste 15 Noroeste 0 -- -- 68
2019-11-18 18:00:00 19 7 Noroeste 16 Noroeste 0 -- -- 65
2019-11-18 17:00:00 20.2 5 Nordeste 13 Nordeste 0 -- -- 61
2019-11-18 16:00:00 20 8 Nordeste 15 Nordeste 0 -- -- 62
2019-11-18 15:00:00 20.8 5 Nordeste 18 Nordeste 0 -- -- 58
2019-11-18 14:00:00 21.2 6 Nordeste 15 Nordeste 0 -- -- 58
2019-11-18 13:00:00 20.6 8 Nordeste 18 Nordeste 0 -- -- 57
2019-11-18 12:00:00 22.7 7 Nordeste 19 Nordeste 0 -- -- 56
2019-11-18 11:00:00 20.4 9 Nordeste 22 Nordeste 0 -- -- 59
2019-11-18 10:00:00 20.1 10 Nordeste 21 Nordeste 0 -- -- 60
2019-11-18 09:00:00 19.5 8 Nordeste 21 Nordeste 0 -- -- 63
2019-11-18 08:00:00 18.5 7 Nordeste 19 Nordeste 0 -- -- 66
2019-11-18 07:00:00 18.3 11 Norte 20 Nordeste 0 -- -- 67
2019-11-18 06:00:00 18.8 9 Norte 18 Norte 0 -- -- 66
2019-11-18 05:00:00 17.9 8 Noroeste 20 Norte 0 -- -- 65
2019-11-18 04:00:00 18 9 Norte 19 Norte 0 -- -- 67
2019-11-18 03:00:00 17.3 8 Noroeste 19 Norte 0 -- -- 65
2019-11-18 02:00:00 17.8 7 Norte 20 Norte 0 -- -- 64
2019-11-18 01:00:00 18 10 Norte 22 Norte 0 -- -- 64
2019-11-18 00:00:00 18.1 14 Norte 27 Nordeste 0 -- -- 63
2019-11-17 23:00:00 18.2 15 Nordeste 31 Norte 0 -- -- 64
2019-11-17 22:00:00 18.4 15 Norte 30 Norte 0 -- -- 64
2019-11-17 21:00:00 18.3 15 Nordeste 30 Nordeste 0 -- -- 67
2019-11-17 20:00:00 18.2 15 Nordeste 29 Nordeste 0 -- -- 68
2019-11-17 19:00:00 18.2 16 Nordeste 31 Nordeste 0 -- -- 68
2019-11-17 18:00:00 17.9 9 Norte 22 Norte 0 -- -- 70
2019-11-17 17:00:00 17.5 13 Norte 28 Nordeste 0 -- -- 73
2019-11-17 16:00:00 18.6 15 Nordeste 31 Norte 0 -- -- 64
2019-11-17 15:00:00 18.8 19 Norte 35 Nordeste 0 -- -- 63
2019-11-17 14:00:00 18.4 18 Nordeste 32 Nordeste 0 -- -- 68
2019-11-17 13:00:00 16.8 22 Nordeste 46 Nordeste 0 -- -- 78
2019-11-17 12:00:00 19.6 13 Nordeste 40 Nordeste 0 -- -- 53
2019-11-17 11:00:00 18.6 17 Nordeste 39 Nordeste 0 -- -- 64
2019-11-17 10:00:00 18.8 14 Norte 34 Nordeste 0 -- -- 62
2019-11-17 09:00:00 17.8 22 Nordeste 43 Nordeste 0 -- -- 67
2019-11-17 08:00:00 18.5 15 Norte 37 Nordeste 0 -- -- 60
2019-11-17 07:00:00 17.3 11 Norte 41 Nordeste 0.1 -- -- 69
2019-11-17 06:00:00 17.2 8 Noroeste 35 Nordeste 0.1 -- -- 68
2019-11-17 05:00:00 18.5 11 Norte 37 Nordeste 0 -- -- 59
2019-11-17 04:00:00 18.4 20 Nordeste 35 Nordeste 0 -- -- 63
2019-11-17 03:00:00 18.8 14 Norte 31 Nordeste 0 -- -- 64
2019-11-17 02:00:00 18.6 17 Nordeste 39 Nordeste 0 -- -- 65
2019-11-17 01:00:00 18.5 13 Norte 31 Norte 0 -- -- 67
2019-11-17 00:00:00 18.3 16 Norte 33 Nordeste 0 -- -- 67
2019-11-16 23:00:00 18.4 13 Norte 40 Nordeste 0 -- -- 68
2019-11-16 22:00:00 18.3 21 Norte 39 Nordeste 0 -- -- 69
2019-11-16 21:00:00 18.8 17 Norte 39 Nordeste 0 -- -- 67
2019-11-16 20:00:00 18.4 18 Nordeste 46 Nordeste 0 -- -- 69
2019-11-16 19:00:00 18.4 15 Norte 42 Nordeste 0 -- -- 67
2019-11-16 18:00:00 19.3 21 Norte 37 Norte 0 -- -- 58
2019-11-16 17:00:00 20.1 23 Norte 40 Norte 0 -- -- 62
2019-11-16 16:00:00 19.4 23 Norte 41 Norte 0 -- -- 57
2019-11-16 15:00:00 19.8 20 Norte 39 Norte 0 -- -- 52
2019-11-16 14:00:00 19.8 22 Norte 36 Norte 0 -- -- 54
2019-11-16 13:00:00 20.3 22 Norte 40 Norte 0 -- -- 54
2019-11-16 12:00:00 19.9 24 Norte 41 Norte 0 -- -- 52
2019-11-16 11:00:00 20.1 20 Norte 37 Norte 0 -- -- 56
2019-11-16 10:00:00 18.1 15 Noroeste 45 Norte 0 -- -- 65
2019-11-16 09:00:00 18.8 18 Noroeste 45 Norte 0 -- -- 60
2019-11-16 08:00:00 18.8 21 Norte 34 Norte 0 -- -- 64
2019-11-16 07:00:00 17.4 24 Norte 44 Norte 0 -- -- 69
2019-11-16 06:00:00 18.5 20 Norte 41 Norte 0 -- -- 64
2019-11-16 05:00:00 18.3 20 Norte 36 Norte 0 -- -- 63
2019-11-16 04:00:00 18.1 21 Norte 38 Noroeste 0 -- -- 68
2019-11-16 03:00:00 17.9 18 Noroeste 52 Nordeste 0 -- -- 68
2019-11-16 02:00:00 18.1 22 Norte 41 Norte 0 -- -- 64
2019-11-16 01:00:00 17.3 15 Noroeste 49 Norte 0 -- -- 70
2019-11-16 00:00:00 18.4 17 Norte 31 Nordeste 0 -- -- 65